Air Resources Laboratory banner image
Air Resources Laboratory web site National Oceanic and Atmospheric Administration (NOAA)

nv metar


KBAM 131255Z AUTO 34003KT 10SM CLR M12/M15 A3038 RMK AO1=
KDRA 131255Z AUTO 11007KT 10SM CLR 03/M19 A3017 RMK AO2 SLP203 T00331189=
KEKO 131256Z AUTO 05005KT 10SM CLR M12/M14 A3037 RMK AO2 SLP336 T11171139 $=
KELY 131253Z AUTO 18011KT CLR M11/M18 A3033 RMK AO2 SLP292 T11061178 $=
KHTH 131255Z AUTO 00000KT 10SM CLR M08/M11 A3038 RMK A01=
KINS 131258Z AUTO 02003KT 10SM CLR M02/M22 A3017 RMK AO2 SLP211 T10211221 $=
KLAS 131256Z 22004KT 10SM CLR 07/M15 A3013 RMK AO2 SLP199 T00721150=
KLOL 131253Z AUTO 00000KT 10SM CLR M16/M18 A3039 RMK AO2 SLP337 T11611183 TSNO=
KLSV 131258Z AUTO 00000KT 10SM CLR 03/M17 A3014 RMK AO2 SLP206 T00281174 $=
KNFL 131256Z AUTO 00000KT 10SM CLR M12/M15 A3039 RMK AO2 SLP246 T11171150=
KP68 131253Z AUTO 21006KT M12/M17 A3035 RMK AO1 SLP309 T11171172=
KRNO 131255Z 00000KT 10SM CLR M08/M11 A3039 RMK AO2 SLP309 T10781106=
KTPH 131256Z AUTO 03005KT 10SM CLR M09/M23 A3032 RMK AO2 SLP290 T10891228=
KVGT 131253Z AUTO 04004KT 10SM CLR 08/M18 A3014 RMK AO2 SLP219 T00831178=
KWMC 131256Z AUTO 10SM CLR M16/M19 A3038 RMK AO2 SLP339 T11611194=